Time;durP1;ratioP1;P1;durP2;ratioP2;P2;SDS_P1;SDS_P2;PMS_P1;PMS_P2;Temp;Humidity;BMP_temperature;BMP_pressure;BME280_temperature;BME280_humidity;BME280_pressure;Samples;Min_cycle;Max_cycle;Signal;HPM_P1;HPM_P2
2023/10/12 00:01:25;;;;;;;2.60;0.82;;;16.40;99.90;;;;;;5057720;28;20174;-58
2023/10/12 00:03:57;;;;;;;0.95;0.50;;;16.30;99.90;;;;;;5055645;28;20157;-58
2023/10/12 00:06:26;;;;;;;3.38;0.80;;;16.30;99.90;;;;;;5041475;28;20245;-58
2023/10/12 00:08:52;;;;;;;1.80;0.60;;;16.20;99.90;;;;;;5057126;28;20097;-58
2023/10/12 00:11:20;;;;;;;1.17;0.60;;;16.30;99.90;;;;;;5060216;28;20032;-58
2023/10/12 00:13:51;;;;;;;3.78;0.70;;;16.20;99.90;;;;;;5052213;28;20403;-58
2023/10/12 00:16:18;;;;;;;1.92;0.40;;;16.20;99.90;;;;;;5052039;28;20036;-57
2023/10/12 00:18:46;;;;;;;3.40;0.30;;;16.20;99.90;;;;;;5054036;28;20040;-58
2023/10/12 00:21:17;;;;;;;0.68;0.20;;;16.10;99.90;;;;;;5057739;28;20103;-58
2023/10/12 00:23:47;;;;;;;1.35;0.20;;;16.10;99.90;;;;;;5050650;28;20051;-58
2023/10/12 00:26:13;;;;;;;0.30;0.00;;;15.90;99.90;;;;;;5052996;28;20037;-57
2023/10/12 00:28:39;;;;;;;;;;;15.90;99.90;;;;;;5051326;28;20511;-58
2023/10/12 00:31:06;;;;;;;3.95;0.20;;;15.80;99.90;;;;;;5053937;28;19975;-58
2023/10/12 00:33:31;;;;;;;1.00;0.20;;;15.70;99.90;;;;;;5054057;28;20438;-58
2023/10/12 00:36:01;;;;;;;3.05;0.20;;;15.70;99.90;;;;;;5056840;28;20047;-58
2023/10/12 00:38:29;;;;;;;2.00;0.20;;;15.60;99.90;;;;;;5055870;28;20078;-58
2023/10/12 00:41:02;;;;;;;2.13;0.30;;;15.50;99.90;;;;;;5057712;28;20037;-58
2023/10/12 00:43:35;;;;;;;1.10;0.30;;;15.50;99.90;;;;;;5052604;28;20395;-56
2023/10/12 00:46:16;;;;;;;2.78;0.10;;;15.40;99.90;;;;;;5057839;28;20123;-58
2023/10/12 00:48:47;;;;;;;2.30;0.30;;;15.40;99.90;;;;;;5055461;28;20059;-58
2023/10/12 00:51:16;;;;;;;0.88;0.20;;;15.30;99.90;;;;;;5055589;28;20462;-58
2023/10/12 00:53:55;;;;;;;1.15;0.40;;;15.30;99.90;;;;;;5049792;28;20053;-58
2023/10/12 00:56:22;;;;;;;2.50;0.60;;;15.30;99.90;;;;;;5051925;28;20040;-59
2023/10/12 00:58:50;;;;;;;2.20;0.70;;;15.20;99.90;;;;;;5054933;28;20179;-58
2023/10/12 01:01:18;;;;;;;3.85;0.65;;;15.20;99.90;;;;;;5052838;28;20139;-59
2023/10/12 01:03:45;;;;;;;1.30;0.20;;;15.20;99.90;;;;;;5050960;28;20037;-59
2023/10/12 01:08:46;;;;;;;1.85;0.30;;;15.10;99.90;;;;;;5049126;28;20057;-59
2023/10/12 01:11:20;;;;;;;5.35;0.50;;;15.10;99.90;;;;;;5056800;28;20376;-59
2023/10/12 01:13:49;;;;;;;3.92;0.40;;;15.00;99.90;;;;;;5054724;28;20402;-59
2023/10/12 01:16:23;;;;;;;4.28;0.90;;;15.00;99.90;;;;;;5056749;28;20051;-59
2023/10/12 01:18:59;;;;;;;4.40;0.52;;;14.90;99.90;;;;;;5056677;28;20075;-59
2023/10/12 01:21:28;;;;;;;5.95;0.80;;;15.00;99.90;;;;;;5057330;28;20042;-58
2023/10/12 01:24:05;;;;;;;1.70;0.40;;;14.90;99.90;;;;;;5057227;28;20450;-59
2023/10/12 01:26:33;;;;;;;4.50;0.60;;;14.90;99.90;;;;;;5059791;28;20033;-59
2023/10/12 01:29:00;;;;;;;2.08;0.35;;;14.90;99.90;;;;;;5056583;28;20083;-59
2023/10/12 01:31:30;;;;;;;2.17;0.50;;;14.90;99.90;;;;;;5053587;28;20411;-59
2023/10/12 01:33:57;;;;;;;6.97;0.88;;;14.80;99.90;;;;;;5056178;28;20048;-59
2023/10/12 01:36:30;;;;;;;6.82;0.75;;;14.80;99.90;;;;;;5054652;28;20103;-58
2023/10/12 01:39:12;;;;;;;5.50;0.60;;;14.80;99.90;;;;;;5052986;28;20052;-58
2023/10/12 01:41:40;;;;;;;4.93;0.93;;;14.80;99.90;;;;;;5053068;28;20052;-59
2023/10/12 01:44:10;;;;;;;10.27;0.95;;;14.80;99.90;;;;;;5057337;28;20123;-59
2023/10/12 01:46:39;;;;;;;5.28;0.70;;;14.80;99.90;;;;;;5055303;28;20032;-59
2023/10/12 01:49:06;;;;;;;6.47;1.23;;;14.80;99.90;;;;;;5058794;28;20439;-59
2023/10/12 01:51:33;;;;;;;5.50;0.75;;;14.70;99.90;;;;;;5056795;28;20040;-59
2023/10/12 01:53:59;;;;;;;6.63;0.98;;;14.70;99.90;;;;;;5060712;28;20076;-59
2023/10/12 01:56:28;;;;;;;7.45;0.77;;;14.70;99.90;;;;;;5058672;28;20039;-58
2023/10/12 01:58:54;;;;;;;6.18;1.13;;;14.70;99.90;;;;;;5061107;28;20534;-58
2023/10/12 02:01:21;;;;;;;5.57;0.95;;;14.60;99.90;;;;;;5062404;28;20036;-58
2023/10/12 02:03:55;;;;;;;7.47;0.85;;;14.60;99.90;;;;;;5061911;28;20065;-57
2023/10/12 02:06:28;;;;;;;8.75;1.00;;;14.50;99.90;;;;;;5059780;28;20079;-56
2023/10/12 02:08:54;;;;;;;8.35;1.63;;;14.50;99.90;;;;;;5057758;28;20553;-58
2023/10/12 02:13:51;;;;;;;8.30;1.10;;;14.50;99.90;;;;;;5059137;28;20041;-56
2023/10/12 02:16:30;;;;;;;8.15;0.98;;;14.50;99.90;;;;;;5051690;28;20037;-59
2023/10/12 02:18:56;;;;;;;9.25;1.35;;;14.40;99.90;;;;;;5054493;28;20041;-58
2023/10/12 02:21:25;;;;;;;9.43;1.00;;;14.40;99.90;;;;;;5053236;28;20040;-58
2023/10/12 02:23:57;;;;;;;4.82;0.50;;;14.40;99.90;;;;;;5057234;28;20045;-58
2023/10/12 02:26:35;;;;;;;9.18;1.20;;;14.40;99.90;;;;;;5054581;28;20514;-58
2023/10/12 02:29:11;;;;;;;9.85;1.05;;;14.30;99.90;;;;;;5057884;28;20064;-59
2023/10/12 02:34:19;;;;;;;5.85;0.80;;;14.30;99.90;;;;;;5060417;28;20048;-59
2023/10/12 02:37:00;;;;;;;;;;;14.30;99.90;;;;;;5060112;28;20407;-59
2023/10/12 02:39:30;;;;;;;2.95;0.50;;;14.30;99.90;;;;;;5070290;28;19916;-55
2023/10/12 02:42:10;;;;;;;4.85;0.55;;;14.30;99.90;;;;;;5066155;28;20075;-57
2023/10/12 02:44:57;;;;;;;7.05;0.90;;;14.30;99.90;;;;;;5061620;28;20041;-57
2023/10/12 02:47:23;;;;;;;6.90;0.80;;;14.30;99.90;;;;;;5055621;28;20033;-56
2023/10/12 02:49:51;;;;;;;10.20;1.25;;;14.30;99.90;;;;;;5055425;28;20408;-56
2023/10/12 02:52:20;;;;;;;4.40;0.98;;;14.30;99.90;;;;;;5053944;28;20045;-56
2023/10/12 02:54:51;;;;;;;5.20;1.02;;;14.30;99.90;;;;;;5054901;28;20493;-58
2023/10/12 02:57:24;;;;;;;5.47;0.90;;;14.30;99.90;;;;;;5054626;28;20033;-59
2023/10/12 03:00:12;;;;;;;6.40;1.00;;;14.30;99.90;;;;;;5057065;28;20866;-58
2023/10/12 03:02:43;;;;;;;4.72;1.15;;;14.30;99.90;;;;;;5049062;28;20087;-60
2023/10/12 03:05:10;;;;;;;5.47;1.15;;;14.20;99.90;;;;;;5054053;28;20058;-59
2023/10/12 03:07:38;;;;;;;5.78;1.13;;;14.20;99.90;;;;;;5055605;28;20128;-58
2023/10/12 03:10:25;;;;;;;6.90;1.25;;;14.10;99.90;;;;;;5057518;28;20033;-58
2023/10/12 03:12:55;;;;;;;5.97;0.88;;;14.10;99.90;;;;;;5056874;28;20920;-59
2023/10/12 03:15:31;;;;;;;5.57;1.38;;;14.10;99.90;;;;;;5059418;28;20416;-59
2023/10/12 03:17:58;;;;;;;8.95;1.10;;;14.10;99.90;;;;;;5057868;28;20040;-59
2023/10/12 03:20:28;;;;;;;6.72;1.35;;;14.10;99.90;;;;;;5061472;28;20037;-59
2023/10/12 03:22:59;;;;;;;7.22;1.42;;;14.00;99.90;;;;;;5063485;28;20055;-57
2023/10/12 03:25:43;;;;;;;5.88;1.30;;;14.00;99.90;;;;;;5060668;28;20037;-59
2023/10/12 03:28:29;;;;;;;6.35;1.40;;;14.00;99.90;;;;;;5057370;28;20043;-59
2023/10/12 03:31:10;;;;;;;6.43;1.13;;;14.00;99.90;;;;;;5057918;28;20051;-59
2023/10/12 03:33:36;;;;;;;6.97;0.70;;;14.00;99.90;;;;;;5055506;28;20095;-59
2023/10/12 03:38:58;;;;;;;12.10;1.35;;;14.00;99.90;;;;;;5055696;28;20440;-61
2023/10/12 03:43:54;;;;;;;5.80;1.50;;;14.00;99.90;;;;;;5053716;28;20111;-59
2023/10/12 03:46:32;;;;;;;5.97;1.10;;;13.90;99.90;;;;;;5055536;28;20064;-59
2023/10/12 03:51:39;;;;;;;5.22;1.35;;;13.90;99.90;;;;;;5053696;28;20093;-59
2023/10/12 03:54:12;;;;;;;7.38;1.13;;;14.00;99.90;;;;;;5056369;28;20036;-59
2023/10/12 03:56:39;;;;;;;9.98;1.88;;;13.90;99.90;;;;;;5055265;28;20032;-59
2023/10/12 03:59:08;;;;;;;11.65;1.77;;;13.90;99.90;;;;;;5059363;28;20406;-59
2023/10/12 04:01:39;;;;;;;5.25;1.33;;;13.90;99.90;;;;;;5055593;28;20040;-59
2023/10/12 04:09:43;;;;;;;9.25;1.40;;;13.90;99.90;;;;;;5053829;28;20041;-59
2023/10/12 04:14:54;;;;;;;6.68;1.80;;;13.90;99.90;;;;;;5055985;28;20044;-59
2023/10/12 04:17:39;;;;;;;;;;;13.90;99.90;;;;;;5053675;28;20029;-59
2023/10/12 04:22:41;;;;;;;;;;;13.90;99.90;;;;;;5052151;28;20079;-57
2023/10/12 04:27:58;;;;;;;8.70;2.58;;;13.90;99.90;;;;;;5056100;28;20059;-59
2023/10/12 04:30:42;;;;;;;10.27;2.10;;;13.90;99.90;;;;;;5055822;28;20427;-61
2023/10/12 04:43:36;;;;;;;;;;;14.00;99.90;;;;;;5058312;28;20491;-58
2023/10/12 04:48:41;;;;;;;9.30;2.00;;;14.00;99.90;;;;;;5054758;28;20041;-58
2023/10/12 04:51:19;;;;;;;7.68;2.03;;;14.00;99.90;;;;;;5055814;28;20070;-58
2023/10/12 04:53:58;;;;;;;9.65;2.30;;;14.00;99.90;;;;;;5052849;28;20044;-58
2023/10/12 04:56:26;;;;;;;6.65;2.05;;;14.00;99.90;;;;;;5050787;28;20091;-58
2023/10/12 04:59:14;;;;;;;5.95;2.20;;;14.00;99.90;;;;;;5055283;28;20835;-58
2023/10/12 05:04:35;;;;;;;9.18;2.28;;;14.00;99.90;;;;;;5053238;28;20921;-58
2023/10/12 05:09:37;;;;;;;7.30;1.70;;;14.00;99.90;;;;;;5055651;28;20522;-58
2023/10/12 05:12:03;;;;;;;5.90;1.75;;;14.00;99.90;;;;;;5054464;28;20037;-59
2023/10/12 05:14:30;;;;;;;;;;;14.00;99.90;;;;;;5062240;28;20064;-57
2023/10/12 05:16:56;;;;;;;10.27;2.17;;;14.00;99.90;;;;;;5069226;28;19951;-55
2023/10/12 05:19:22;;;;;;;8.57;1.42;;;14.00;99.90;;;;;;5066059;28;20080;-57
2023/10/12 05:21:47;;;;;;;10.73;2.17;;;14.00;99.90;;;;;;5063545;28;20079;-57
2023/10/12 05:24:13;;;;;;;10.15;2.72;;;14.00;99.90;;;;;;5057287;28;20036;-55
2023/10/12 05:26:39;;;;;;;5.75;2.53;;;14.00;99.90;;;;;;5056695;28;20515;-56
2023/10/12 05:32:05;;;;;;;8.27;2.50;;;14.00;99.90;;;;;;5057134;28;20431;-57
2023/10/12 05:37:38;;;;;;;11.95;1.90;;;13.90;99.90;;;;;;5054452;28;20044;-55
2023/10/12 05:39:55;;;;;;;5.35;2.05;;;13.90;99.90;;;;;;5049788;28;20133;-57
2023/10/12 05:42:25;;;;;;;8.05;2.58;;;13.90;99.90;;;;;;5050384;28;20112;-57
2023/10/12 05:44:51;;;;;;;5.57;2.03;;;13.90;99.90;;;;;;5055756;28;20069;-56
2023/10/12 05:47:18;;;;;;;3.92;1.73;;;13.90;99.90;;;;;;5055392;28;20041;-59
2023/10/12 05:49:45;;;;;;;5.68;2.33;;;13.90;99.90;;;;;;5055308;28;20041;-57
2023/10/12 05:52:11;;;;;;;4.72;1.92;;;13.90;99.90;;;;;;5052081;28;20036;-58
2023/10/12 05:54:40;;;;;;;;;;;13.90;99.90;;;;;;5058163;28;20435;-59
2023/10/12 05:57:19;;;;;;;13.52;2.45;;;13.90;99.90;;;;;;5069110;28;20318;-58
2023/10/12 05:59:49;;;;;;;5.90;2.10;;;13.90;99.90;;;;;;5067199;28;20068;-57
2023/10/12 06:02:17;;;;;;;10.40;2.78;;;13.90;99.90;;;;;;5068979;28;20048;-59
2023/10/12 06:04:44;;;;;;;5.70;2.20;;;13.90;99.90;;;;;;5060249;28;20037;-58
2023/10/12 06:07:10;;;;;;;5.38;2.03;;;13.90;99.90;;;;;;5058915;28;20419;-57
2023/10/12 06:09:37;;;;;;;;;;;13.90;99.90;;;;;;5060377;28;20045;-57
2023/10/12 06:12:07;;;;;;;7.33;2.10;;;13.90;99.90;;;;;;5058377;28;19925;-57
2023/10/12 06:14:38;;;;;;;10.32;3.38;;;13.90;99.90;;;;;;5053238;28;20507;-59
2023/10/12 06:17:08;;;;;;;8.85;3.15;;;13.90;99.90;;;;;;5057562;28;20063;-59
2023/10/12 06:19:34;;;;;;;8.43;3.50;;;13.90;99.90;;;;;;5055005;28;20041;-59
2023/10/12 06:22:19;;;;;;;12.25;3.42;;;13.90;99.90;;;;;;5052168;28;20418;-59
2023/10/12 06:24:49;;;;;;;8.95;2.85;;;13.90;99.90;;;;;;5055097;28;20041;-57
2023/10/12 06:29:51;;;;;;;8.15;3.42;;;13.90;99.90;;;;;;5057133;28;20408;-57
2023/10/12 06:32:19;;;;;;;12.65;3.00;;;13.90;99.90;;;;;;5061005;28;20080;-55
2023/10/12 06:34:45;;;;;;;7.72;3.42;;;13.80;99.90;;;;;;5059271;28;20310;-55
2023/10/12 06:37:30;;;;;;;8.13;2.70;;;13.80;99.90;;;;;;5062738;28;20029;-58
2023/10/12 06:42:39;;;;;;;8.43;2.72;;;13.90;99.90;;;;;;5048278;28;20408;-56
2023/10/12 06:45:08;;;;;;;11.45;3.30;;;13.80;99.90;;;;;;5046540;28;20047;-55
2023/10/12 06:47:44;;;;;;;12.25;3.70;;;13.90;99.90;;;;;;5061376;28;20481;-56
2023/10/12 06:50:15;;;;;;;7.22;4.07;;;13.80;99.90;;;;;;5051437;28;20040;-57
2023/10/12 06:52:42;;;;;;;9.23;3.95;;;13.80;99.90;;;;;;5055136;28;20040;-57
2023/10/12 06:55:09;;;;;;;16.35;4.10;;;13.80;99.90;;;;;;5054130;28;20610;-57
2023/10/12 06:57:42;;;;;;;13.45;4.47;;;13.80;99.90;;;;;;5053785;28;20396;-58
2023/10/12 07:02:35;;;;;;;;;;;13.80;99.90;;;;;;5051297;28;20442;-55
2023/10/12 07:05:04;;;;;;;11.95;4.13;;;13.80;99.90;;;;;;5047613;28;19916;-56
2023/10/12 07:07:41;;;;;;;9.52;3.25;;;13.80;99.90;;;;;;5045454;28;20437;-57
2023/10/12 07:12:49;;;;;;;7.63;3.60;;;13.90;99.90;;;;;;5051367;28;20487;-59
2023/10/12 07:15:21;;;;;;;9.05;2.65;;;14.00;99.90;;;;;;5054424;28;20049;-58
2023/10/12 07:17:50;;;;;;;7.78;2.95;;;13.90;99.90;;;;;;5051845;28;20428;-59
2023/10/12 07:22:52;;;;;;;8.02;3.40;;;13.90;99.90;;;;;;5053036;28;20514;-56
2023/10/12 07:25:25;;;;;;;12.52;3.75;;;13.90;99.90;;;;;;5053569;28;20039;-57
2023/10/12 07:27:59;;;;;;;10.02;3.40;;;14.00;99.90;;;;;;5053743;28;20087;-58
2023/10/12 07:30:36;;;;;;;12.05;3.17;;;14.00;99.90;;;;;;5052551;28;20515;-58
2023/10/12 07:33:05;;;;;;;13.20;4.03;;;14.00;99.90;;;;;;5054454;28;20041;-59
2023/10/12 07:35:32;;;;;;;6.63;3.05;;;14.10;99.90;;;;;;5055398;28;20033;-58
2023/10/12 07:38:15;;;;;;;6.30;2.67;;;14.10;99.90;;;;;;5047604;28;20037;-55
2023/10/12 07:40:52;;;;;;;11.52;4.38;;;14.20;99.90;;;;;;5047572;28;20044;-58
2023/10/12 07:43:18;;;;;;;7.45;3.33;;;14.20;99.90;;;;;;5043379;28;20044;-57
2023/10/12 07:45:50;;;;;;;10.05;3.65;;;14.30;99.90;;;;;;5051335;28;20033;-58
2023/10/12 07:48:40;;;;;;;11.85;3.25;;;14.40;99.90;;;;;;5051530;28;20475;-57
2023/10/12 07:51:16;;;;;;;11.63;3.78;;;14.50;99.90;;;;;;5048958;28;20055;-58
2023/10/12 07:53:48;;;;;;;12.43;3.15;;;14.70;99.90;;;;;;5051483;28;20531;-58
2023/10/12 07:56:17;;;;;;;8.20;3.40;;;14.90;99.90;;;;;;5034920;28;20044;-58
2023/10/12 07:58:51;;;;;;;11.43;4.13;;;15.10;99.90;;;;;;5061011;28;20063;-59
2023/10/12 08:01:22;;;;;;;12.25;3.92;;;15.20;99.90;;;;;;5053309;28;20040;-58
2023/10/12 08:03:51;;;;;;;5.28;2.28;;;15.40;99.90;;;;;;5064379;28;20036;-58
2023/10/12 08:06:19;;;;;;;8.43;2.83;;;15.60;99.90;;;;;;5055970;28;20043;-58
2023/10/12 08:08:45;;;;;;;17.85;3.70;;;15.80;99.90;;;;;;5059830;28;20506;-57
2023/10/12 08:11:31;;;;;;;14.75;3.40;;;16.00;99.90;;;;;;5055985;28;20029;-58
2023/10/12 08:13:59;;;;;;;11.60;2.83;;;16.20;99.90;;;;;;5045570;28;20045;-58
2023/10/12 08:16:28;;;;;;;11.38;3.33;;;16.40;99.90;;;;;;5055852;28;20123;-58
2023/10/12 08:21:26;;;;;;;10.88;2.13;;;16.70;99.90;;;;;;5057102;28;20040;-57
2023/10/12 08:39:50;;;;;;;7.55;1.75;;;16.90;99.90;;;;;;5058524;28;20616;-58
2023/10/12 08:44:54;;;;;;;8.13;1.23;;;16.80;99.90;;;;;;5056959;28;20051;-56
2023/10/12 08:47:31;;;;;;;11.98;1.45;;;16.60;99.90;;;;;;5064172;28;20036;-58
2023/10/12 08:50:02;;;;;;;11.40;2.25;;;16.50;99.90;;;;;;5063667;28;20189;-56
2023/10/12 08:52:31;;;;;;;5.85;1.25;;;16.40;99.90;;;;;;5060759;28;20518;-57
2023/10/12 08:55:14;;;;;;;11.95;1.50;;;16.30;99.90;;;;;;5062624;28;20052;-58
2023/10/12 08:58:01;;;;;;;11.60;1.85;;;16.20;99.90;;;;;;5066964;28;20027;-55
2023/10/12 09:03:05;;;;;;;11.02;1.70;;;16.00;99.90;;;;;;5065767;28;20072;-58
2023/10/12 09:05:33;;;;;;;10.85;2.22;;;16.00;99.90;;;;;;5060630;28;20033;-57
2023/10/12 09:11:02;;;;;;;7.57;1.52;;;15.90;99.90;;;;;;5070241;28;20444;-57
2023/10/12 09:13:33;;;;;;;6.50;1.52;;;15.90;99.90;;;;;;5053546;28;20037;-57
2023/10/12 09:16:02;;;;;;;7.90;2.20;;;15.90;99.90;;;;;;5061535;28;20404;-57
2023/10/12 09:18:30;;;;;;;8.73;1.25;;;15.90;99.90;;;;;;5063239;28;20654;-56
2023/10/12 09:23:28;;;;;;;7.93;1.25;;;15.90;99.90;;;;;;5057026;28;20045;-55
2023/10/12 09:31:48;;;;;;;10.70;2.13;;;15.80;99.90;;;;;;5067016;28;20118;-57
2023/10/12 09:36:43;;;;;;;11.82;2.00;;;15.70;99.90;;;;;;5063088;28;20449;-57
2023/10/12 09:39:14;;;;;;;7.80;1.75;;;15.60;99.90;;;;;;5060345;28;20052;-59
2023/10/12 09:41:41;;;;;;;11.02;1.60;;;15.60;99.90;;;;;;5066797;28;20493;-55
2023/10/12 09:44:11;;;;;;;12.07;1.73;;;15.60;99.90;;;;;;5067468;28;20040;-58
2023/10/12 09:46:46;;;;;;;11.05;1.50;;;15.50;99.90;;;;;;5066010;28;20078;-59
2023/10/12 09:49:21;;;;;;;6.65;1.48;;;15.50;99.90;;;;;;5045824;28;20036;-60
2023/10/12 09:51:51;;;;;;;19.13;1.58;;;15.50;99.90;;;;;;5054503;28;20041;-59
2023/10/12 09:54:29;;;;;;;14.75;1.73;;;15.50;99.90;;;;;;5052832;28;20041;-61
2023/10/12 09:57:16;;;;;;;7.43;2.60;;;15.50;99.90;;;;;;5057998;28;20047;-59
2023/10/12 09:59:53;;;;;;;10.33;1.53;;;15.50;99.90;;;;;;5056145;28;20041;-60
2023/10/12 10:02:29;;;;;;;7.45;1.60;;;15.50;99.90;;;;;;5047086;28;20287;-60
2023/10/12 10:05:11;;;;;;;10.85;2.17;;;15.40;99.90;;;;;;5065267;28;20044;-58
2023/10/12 10:07:42;;;;;;;8.60;1.70;;;15.50;99.90;;;;;;5050049;28;20397;-60
2023/10/12 10:10:30;;;;;;;9.35;1.40;;;15.50;99.90;;;;;;5064593;28;20492;-59
2023/10/12 10:12:54;;;;;;;6.57;1.08;;;15.50;99.90;;;;;;5056224;28;20044;-60
2023/10/12 10:15:24;;;;;;;15.55;2.42;;;15.50;99.90;;;;;;5067869;28;20395;-60
2023/10/12 10:17:55;;;;;;;11.75;1.60;;;15.50;99.90;;;;;;5059796;28;20087;-60
2023/10/12 10:22:59;;;;;;;12.90;1.77;;;15.70;99.90;;;;;;5061155;28;20052;-60
2023/10/12 10:25:50;;;;;;;10.55;2.45;;;15.70;99.90;;;;;;5066012;28;20111;-60
2023/10/12 10:28:24;;;;;;;14.45;2.45;;;15.80;99.90;;;;;;5060544;28;20051;-60
2023/10/12 10:30:52;;;;;;;9.20;1.90;;;15.80;99.90;;;;;;5066658;28;20091;-60
2023/10/12 10:33:23;;;;;;;10.43;1.63;;;15.90;99.90;;;;;;5065688;28;20047;-60
2023/10/12 10:35:58;;;;;;;7.75;2.03;;;15.90;99.90;;;;;;5058965;28;20550;-60
2023/10/12 10:38:30;;;;;;;9.07;1.98;;;15.90;99.90;;;;;;5060985;28;20468;-59
2023/10/12 10:41:05;;;;;;;11.85;2.13;;;15.80;99.90;;;;;;5068438;28;20438;-59
2023/10/12 10:43:35;;;;;;;7.20;1.73;;;15.80;99.90;;;;;;5067144;28;20108;-60
2023/10/12 10:46:05;;;;;;;6.70;1.80;;;15.80;99.90;;;;;;5069051;28;20102;-61
2023/10/12 10:48:33;;;;;;;13.32;1.85;;;15.80;99.90;;;;;;5064760;28;20040;-61
2023/10/12 10:51:02;;;;;;;8.18;1.45;;;15.80;99.90;;;;;;5059740;28;20098;-61
2023/10/12 10:53:31;;;;;;;8.70;1.27;;;15.70;99.90;;;;;;5057220;28;20372;-61
2023/10/12 10:56:00;;;;;;;8.57;1.27;;;15.70;99.90;;;;;;5063683;28;20050;-60
2023/10/12 10:58:25;;;;;;;12.18;1.90;;;15.80;99.90;;;;;;5065351;28;20032;-60
2023/10/12 11:00:57;;;;;;;14.70;2.05;;;15.80;99.90;;;;;;5067744;28;20174;-60
2023/10/12 11:03:23;;;;;;;5.85;0.98;;;15.70;99.90;;;;;;5064072;28;20122;-60
2023/10/12 11:05:48;;;;;;;10.77;1.17;;;15.70;99.90;;;;;;5056382;28;20495;-60
2023/10/12 11:08:22;;;;;;;9.43;1.15;;;15.60;99.90;;;;;;5062911;28;20111;-60
2023/10/12 11:13:38;;;;;;;10.63;0.93;;;15.50;99.90;;;;;;5055406;28;20040;-59
2023/10/12 11:16:20;;;;;;;13.48;1.30;;;15.60;99.90;;;;;;5060556;28;20045;-62
2023/10/12 11:18:51;;;;;;;17.92;2.72;;;15.60;99.90;;;;;;5050181;28;20043;-61
2023/10/12 11:21:18;;;;;;;6.32;1.23;;;15.60;99.90;;;;;;5056935;28;20043;-61
2023/10/12 11:23:44;;;;;;;12.20;1.42;;;15.60;99.90;;;;;;5058869;28;20459;-61
2023/10/12 11:26:17;;;;;;;11.38;0.95;;;15.60;99.90;;;;;;5057436;28;20039;-61
2023/10/12 11:28:44;;;;;;;12.15;1.52;;;15.50;99.90;;;;;;5062135;28;20074;-62
2023/10/12 11:31:20;;;;;;;11.75;1.77;;;15.50;99.90;;;;;;5049556;28;20385;-61
2023/10/12 11:33:49;;;;;;;13.57;1.23;;;15.50;99.90;;;;;;5047299;28;20048;-61
2023/10/12 11:36:25;;;;;;;13.95;1.10;;;15.60;99.90;;;;;;5045702;28;20036;-60
2023/10/12 11:39:03;;;;;;;7.90;1.57;;;15.50;99.90;;;;;;5059965;28;20406;-61
2023/10/12 11:41:30;;;;;;;12.15;1.48;;;15.60;99.90;;;;;;5065985;28;20044;-61
2023/10/12 11:44:00;;;;;;;;;;;15.60;99.90;;;;;;5065288;28;20091;-61
2023/10/12 11:46:26;;;;;;;9.32;2.92;;;15.60;99.90;;;;;;5066302;28;20397;-61
2023/10/12 11:49:02;;;;;;;6.75;1.98;;;15.60;99.90;;;;;;5069522;28;20447;-59
2023/10/12 11:51:28;;;;;;;12.05;2.08;;;15.50;99.90;;;;;;5069444;28;20212;-60
2023/10/12 11:53:54;;;;;;;9.57;2.00;;;15.50;99.90;;;;;;5069855;28;20040;-59
2023/10/12 11:56:22;;;;;;;9.60;1.92;;;15.50;99.90;;;;;;5068128;28;20447;-59
2023/10/12 11:58:55;;;;;;;11.13;2.42;;;15.50;99.90;;;;;;5069907;28;20769;-59
2023/10/12 12:01:22;;;;;;;13.07;2.03;;;15.50;99.90;;;;;;5067623;28;20048;-59
2023/10/12 12:03:53;;;;;;;12.40;1.98;;;15.50;99.90;;;;;;5069700;28;20052;-59
2023/10/12 12:06:21;;;;;;;8.98;2.00;;;15.50;99.90;;;;;;5069757;28;20121;-61
2023/10/12 12:08:47;;;;;;;9.00;0.95;;;15.40;99.90;;;;;;5069400;28;20052;-61
2023/10/12 12:11:15;;;;;;;7.80;1.35;;;15.40;99.90;;;;;;5069281;28;20040;-62
2023/10/12 12:13:47;;;;;;;8.48;1.17;;;15.30;99.90;;;;;;5068982;28;20036;-60
2023/10/12 12:16:19;;;;;;;11.73;1.40;;;15.20;99.90;;;;;;5074408;28;20048;-59
2023/10/12 12:18:48;;;;;;;6.18;2.03;;;15.20;99.90;;;;;;5074673;28;20044;-59
2023/10/12 12:21:17;;;;;;;7.00;1.70;;;15.20;99.90;;;;;;5067880;28;20115;-58
2023/10/12 12:23:46;;;;;;;11.48;2.28;;;15.20;99.90;;;;;;5068967;28;20044;-59
2023/10/12 12:26:14;;;;;;;9.70;1.00;;;15.20;99.90;;;;;;5068843;28;20039;-59
2023/10/12 12:28:49;;;;;;;12.88;1.20;;;15.10;99.90;;;;;;5068985;28;20044;-59
2023/10/12 12:31:15;;;;;;;11.75;1.58;;;15.00;99.90;;;;;;5069082;28;20073;-60
2023/10/12 12:33:46;;;;;;;5.82;0.90;;;14.90;99.90;;;;;;5067918;28;20127;-60
2023/10/12 12:36:13;;;;;;;12.45;1.23;;;14.80;99.90;;;;;;5069129;28;20040;-60
2023/10/12 12:41:23;;;;;;;10.50;1.60;;;14.60;99.90;;;;;;5064850;28;20139;-59
2023/10/12 12:43:50;;;;;;;11.88;1.88;;;14.50;99.90;;;;;;5064044;28;20048;-59
2023/10/12 12:46:17;;;;;;;7.55;1.17;;;14.30;99.90;;;;;;5065537;28;20047;-59
2023/10/12 12:48:46;;;;;;;12.73;1.10;;;14.20;99.90;;;;;;5067116;28;20045;-60
2023/10/12 12:51:13;;;;;;;10.00;1.63;;;14.20;99.90;;;;;;5068200;28;20051;-60
2023/10/12 12:53:39;;;;;;;8.63;1.20;;;14.20;99.90;;;;;;5067498;28;20049;-59
2023/10/12 12:56:05;;;;;;;14.90;1.63;;;14.10;99.90;;;;;;5067754;28;20043;-59
2023/10/12 12:58:32;;;;;;;12.20;1.55;;;14.10;99.90;;;;;;5068984;28;20033;-59
2023/10/12 13:01:00;;;;;;;9.93;1.30;;;14.00;99.90;;;;;;5068588;28;20043;-59
2023/10/12 13:03:28;;;;;;;7.50;0.82;;;13.90;99.90;;;;;;5068898;28;20037;-59
2023/10/12 13:05:54;;;;;;;13.63;1.30;;;13.90;99.90;;;;;;5068190;28;20048;-59
2023/10/12 13:08:20;;;;;;;8.63;1.60;;;13.80;99.90;;;;;;5068844;28;20086;-59
2023/10/12 13:10:46;;;;;;;11.38;1.98;;;13.70;99.90;;;;;;5067167;28;20036;-59
2023/10/12 13:13:14;;;;;;;6.07;0.95;;;13.70;99.90;;;;;;5068777;28;20548;-59
2023/10/12 13:15:47;;;;;;;8.15;1.10;;;13.70;99.90;;;;;;5067636;28;20390;-59
2023/10/12 13:18:15;;;;;;;8.85;1.20;;;13.70;99.90;;;;;;5068567;28;20079;-59
2023/10/12 13:20:47;;;;;;;13.00;1.33;;;13.70;99.90;;;;;;5068737;28;20040;-60
2023/10/12 13:23:21;;;;;;;12.40;1.45;;;13.70;99.90;;;;;;5069018;28;20079;-59
2023/10/12 13:25:47;;;;;;;10.30;1.40;;;13.70;99.90;;;;;;5068674;28;20040;-59
2023/10/12 13:28:13;;;;;;;15.90;1.63;;;13.70;99.90;;;;;;5068643;28;20040;-59
2023/10/12 13:30:39;;;;;;;7.35;1.35;;;13.70;99.90;;;;;;5068086;28;20434;-59
2023/10/12 13:33:06;;;;;;;11.38;1.73;;;13.70;99.90;;;;;;5068217;28;20032;-60
2023/10/12 13:38:09;;;;;;;10.60;1.52;;;13.70;99.90;;;;;;5071975;28;20048;-58
2023/10/12 13:40:48;;;;;;;9.48;1.67;;;13.60;99.90;;;;;;5071886;28;20029;-59
2023/10/12 13:43:14;;;;;;;12.02;2.10;;;13.60;99.90;;;;;;5071840;28;20040;-59
2023/10/12 13:45:49;;;;;;;9.13;1.77;;;13.60;99.90;;;;;;5072315;28;20076;-59
2023/10/12 13:48:21;;;;;;;12.73;2.55;;;13.60;99.90;;;;;;5072049;28;20448;-59
2023/10/12 13:50:59;;;;;;;9.68;3.20;;;13.60;99.90;;;;;;5071962;28;20048;-59
2023/10/12 13:53:25;;;;;;;18.17;2.40;;;13.60;99.90;;;;;;5071846;28;20641;-59
2023/10/12 13:55:52;;;;;;;9.23;2.45;;;13.50;99.90;;;;;;5069986;28;20053;-59
2023/10/12 13:58:24;;;;;;;9.45;1.98;;;13.50;99.90;;;;;;5062089;28;20047;-58
2023/10/12 14:00:51;;;;;;;11.55;2.20;;;13.50;99.90;;;;;;5058183;28;20043;-59
2023/10/12 14:03:17;;;;;;;13.98;2.00;;;13.40;99.90;;;;;;5058569;28;20083;-59
2023/10/12 14:05:43;;;;;;;15.13;2.30;;;13.40;99.90;;;;;;5057432;28;20535;-59
2023/10/12 14:08:10;;;;;;;11.43;1.63;;;13.40;99.90;;;;;;5053672;28;20048;-58
2023/10/12 14:10:44;;;;;;;11.02;2.15;;;13.30;99.90;;;;;;5052963;28;20040;-57
2023/10/12 14:13:12;;;;;;;12.95;2.13;;;13.30;99.90;;;;;;5057003;28;20402;-58
2023/10/12 14:15:38;;;;;;;13.48;3.03;;;13.30;99.90;;;;;;5050673;28;20486;-58
2023/10/12 14:18:04;;;;;;;5.70;1.20;;;13.30;99.90;;;;;;5047747;28;20098;-58
2023/10/12 14:20:32;;;;;;;;;;;13.30;99.90;;;;;;5056346;28;20108;-57
2023/10/12 14:22:58;;;;;;;;;;;13.20;99.90;;;;;;5063931;28;19917;-59
2023/10/12 14:25:30;;;;;;;10.70;1.83;;;13.20;99.90;;;;;;5056310;28;19917;-59
2023/10/12 14:27:59;;;;;;;11.40;2.75;;;13.20;99.90;;;;;;5060880;28;20040;-59
2023/10/12 14:30:29;;;;;;;10.35;1.67;;;13.20;99.90;;;;;;5056910;28;20041;-59
2023/10/12 14:33:06;;;;;;;11.25;2.50;;;13.20;99.90;;;;;;5053842;28;20037;-59
2023/10/12 14:35:38;;;;;;;12.63;2.08;;;13.20;99.90;;;;;;5057925;28;20460;-59
2023/10/12 14:38:08;;;;;;;14.18;2.28;;;13.20;99.90;;;;;;5063621;28;20441;-59
2023/10/12 14:40:44;;;;;;;8.60;2.40;;;13.20;99.90;;;;;;5056325;28;20056;-59
2023/10/12 14:43:12;;;;;;;9.68;1.52;;;13.20;99.90;;;;;;5055679;28;20119;-59
2023/10/12 14:45:48;;;;;;;13.23;2.22;;;13.10;99.90;;;;;;5057528;28;20504;-57
2023/10/12 14:48:16;;;;;;;11.13;2.72;;;13.10;99.90;;;;;;5053673;28;20052;-59
2023/10/12 14:50:49;;;;;;;10.35;2.80;;;13.10;99.90;;;;;;5054832;28;20313;-58
2023/10/12 14:53:21;;;;;;;16.77;3.03;;;13.10;99.90;;;;;;5059445;28;20053;-58
2023/10/12 14:55:51;;;;;;;12.27;2.45;;;13.10;99.90;;;;;;5062284;28;20029;-57
2023/10/12 14:58:17;;;;;;;12.82;3.92;;;13.00;99.90;;;;;;5046266;28;20029;-59